createdAt,value
2023-04-18T00:02:45.784Z,42.89
2023-04-18T00:08:06.491Z,42.82
2023-04-18T00:13:28.346Z,42.65
2023-04-18T00:18:48.785Z,42.80
2023-04-18T00:24:09.188Z,42.96
2023-04-18T00:29:31.745Z,43.29
2023-04-18T00:34:52.135Z,43.52
2023-04-18T00:40:14.000Z,43.73
2023-04-18T00:45:35.679Z,44.04
2023-04-18T00:50:57.191Z,43.93
2023-04-18T00:56:17.821Z,44.17
2023-04-18T01:01:40.190Z,44.38
2023-04-18T01:07:02.212Z,44.55
2023-04-18T01:12:23.134Z,44.64
2023-04-18T01:17:43.822Z,45.01
2023-04-18T01:23:04.449Z,45.07
2023-04-18T01:28:27.770Z,45.42
2023-04-18T01:33:49.771Z,45.59
2023-04-18T01:39:10.465Z,45.61
2023-04-18T01:44:56.917Z,46.11
2023-04-18T01:50:17.492Z,46.04
2023-04-18T01:55:38.152Z,46.09
2023-04-18T02:00:59.434Z,46.21
2023-04-18T02:06:20.486Z,46.18
2023-04-18T02:11:41.795Z,46.36
2023-04-18T02:17:02.563Z,46.62
2023-04-18T02:22:23.172Z,46.62
2023-04-18T02:27:44.645Z,46.60
2023-04-18T02:33:05.504Z,47.02
2023-04-18T02:38:25.732Z,46.99
2023-04-18T02:43:46.651Z,47.23
2023-04-18T02:49:15.582Z,47.49
2023-04-18T02:54:37.730Z,47.38
2023-04-18T03:00:04.603Z,47.57
2023-04-18T03:05:51.849Z,47.88
2023-04-18T03:11:13.088Z,48.02
2023-04-18T03:16:33.964Z,48.24
2023-04-18T03:21:56.789Z,48.35
2023-04-18T03:27:17.465Z,48.33
2023-04-18T03:32:42.186Z,48.45
2023-04-18T03:38:02.969Z,48.51
2023-04-18T03:43:27.238Z,48.75
2023-04-18T03:48:48.517Z,48.89
2023-04-18T03:54:09.032Z,49.09
2023-04-18T03:59:29.908Z,49.16
2023-04-18T04:04:50.756Z,49.26
2023-04-18T04:10:11.454Z,49.35
2023-04-18T04:15:32.090Z,49.42
2023-04-18T04:20:59.103Z,49.50
2023-04-18T04:26:36.853Z,49.66
2023-04-18T04:32:06.706Z,49.71
2023-04-18T04:37:33.477Z,49.87
2023-04-18T04:43:05.498Z,49.75
2023-04-18T04:48:31.227Z,49.91
2023-04-18T04:53:51.629Z,49.97
2023-04-18T04:59:12.439Z,50.15
2023-04-18T05:04:36.196Z,50.47
2023-04-18T05:09:57.060Z,50.50
2023-04-18T05:15:20.434Z,50.71
2023-04-18T05:20:43.320Z,50.70
2023-04-18T05:26:05.100Z,51.13
2023-04-18T05:31:26.758Z,51.54
2023-04-18T05:36:47.863Z,51.54
2023-04-18T05:42:08.437Z,51.85
2023-04-18T05:47:30.267Z,51.62
2023-04-18T05:52:50.955Z,51.56
2023-04-18T05:58:11.422Z,51.42
2023-04-18T06:03:32.153Z,51.42
2023-04-18T06:08:54.225Z,51.27
2023-04-18T06:14:14.982Z,51.33
2023-04-18T06:19:35.753Z,51.25
2023-04-18T06:24:56.423Z,51.34
2023-04-18T06:30:16.940Z,51.11
2023-04-18T06:35:38.041Z,50.85
2023-04-18T06:40:58.947Z,50.68
2023-04-18T06:46:19.676Z,50.70
2023-04-18T06:51:40.600Z,50.63
2023-04-18T06:57:03.685Z,50.35
2023-04-18T07:02:24.330Z,50.41
2023-04-18T07:07:45.368Z,50.00
2023-04-18T07:13:06.058Z,49.73
2023-04-18T07:18:37.433Z,49.51
2023-04-18T07:23:58.634Z,49.25
2023-04-18T07:29:19.559Z,48.91
2023-04-18T07:34:40.341Z,48.80
2023-04-18T07:40:00.983Z,48.46
2023-04-18T07:45:21.825Z,48.05
2023-04-18T07:50:42.509Z,47.93
2023-04-18T07:56:03.097Z,47.69
2023-04-18T08:01:24.701Z,47.42
2023-04-18T08:06:45.168Z,47.43
2023-04-18T08:12:05.800Z,47.08
2023-04-18T08:17:26.652Z,46.78
2023-04-18T08:23:05.193Z,46.63
2023-04-18T08:28:28.970Z,46.63
2023-04-18T08:33:49.567Z,46.47
2023-04-18T08:39:10.188Z,46.09
2023-04-18T08:44:31.296Z,45.75
2023-04-18T08:49:52.165Z,45.32
2023-04-18T08:55:12.760Z,45.02
2023-04-18T09:00:34.101Z,44.66
2023-04-18T09:06:10.013Z,44.44
2023-04-18T09:19:54.515Z,42.98
2023-04-18T09:25:35.690Z,42.77
2023-04-18T09:30:57.626Z,41.95
2023-04-18T09:36:22.054Z,41.59
2023-04-18T09:41:58.423Z,41.20
2023-04-18T09:47:19.158Z,40.53
2023-04-18T09:52:41.797Z,39.57
2023-04-18T09:58:04.741Z,39.02
2023-04-18T10:03:34.512Z,38.37
2023-04-18T10:08:55.583Z,38.20
2023-04-18T10:14:17.343Z,37.78
2023-04-18T10:19:41.922Z,37.05
2023-04-18T10:25:02.656Z,36.54
2023-04-18T10:38:23.633Z,34.76
2023-04-18T10:44:23.692Z,33.37
2023-04-18T10:49:54.730Z,28.78
2023-04-18T10:55:18.685Z,16.80
2023-04-18T11:00:39.131Z,12.76
2023-04-18T11:06:03.256Z,11.09
2023-04-18T11:11:24.573Z,10.48
2023-04-18T11:16:45.202Z,9.35
2023-04-18T11:22:05.588Z,9.24
2023-04-18T11:27:26.887Z,8.34
2023-04-18T11:32:47.694Z,7.69
2023-04-18T11:38:10.245Z,8.16
2023-04-18T11:43:30.895Z,8.04
2023-04-18T11:48:51.708Z,8.13
2023-04-18T11:54:38.670Z,7.14
2023-04-18T12:00:00.765Z,6.46
2023-04-18T12:05:26.529Z,6.89
2023-04-18T12:10:48.471Z,7.66
2023-04-18T12:16:09.033Z,7.30
2023-04-18T12:21:30.142Z,7.19
2023-04-18T12:26:50.904Z,7.36
2023-04-18T12:32:11.499Z,6.45
2023-04-18T12:37:32.077Z,6.25
2023-04-18T12:42:53.987Z,5.86
2023-04-18T12:48:14.657Z,5.82
2023-04-18T12:53:35.514Z,5.63
2023-04-18T12:58:55.799Z,6.53
2023-04-18T13:04:16.696Z,6.22
2023-04-18T13:09:37.555Z,5.92
2023-04-18T13:14:58.081Z,5.19
2023-04-18T13:20:18.960Z,5.34
2023-04-18T13:25:41.282Z,5.86
2023-04-18T13:31:02.091Z,5.63
2023-04-18T13:36:23.588Z,6.97
2023-04-18T13:41:44.316Z,8.83
2023-04-18T13:47:06.392Z,5.89
2023-04-18T13:52:26.913Z,4.06
2023-04-18T13:57:47.679Z,3.58
2023-04-18T14:03:08.236Z,2.75
2023-04-18T14:08:29.309Z,3.13
2023-04-18T14:13:49.813Z,3.80
2023-04-18T14:26:41.537Z,3.20
2023-04-18T14:32:02.651Z,2.78
2023-04-18T14:37:24.223Z,2.38
2023-04-18T14:42:44.696Z,2.79
2023-04-18T14:48:06.810Z,2.47
2023-04-18T14:53:28.796Z,2.51
2023-04-18T14:58:49.856Z,2.76
2023-04-18T15:04:10.877Z,3.10
2023-04-18T15:09:36.639Z,3.85
2023-04-18T15:14:58.912Z,5.09
2023-04-18T15:20:21.845Z,5.83
2023-04-18T15:25:44.776Z,6.48
2023-04-18T15:31:05.904Z,6.92
2023-04-18T15:36:27.671Z,9.87
2023-04-18T15:41:52.746Z,13.29
2023-04-18T15:47:14.521Z,15.48
2023-04-18T15:52:35.080Z,16.12
2023-04-18T15:57:55.792Z,17.32
2023-04-18T16:03:17.106Z,18.56
2023-04-18T16:08:38.019Z,19.56
2023-04-18T16:13:58.571Z,20.53
2023-04-18T16:19:21.630Z,21.05
2023-04-18T16:24:42.395Z,21.70
2023-04-18T16:30:05.077Z,22.44
2023-04-18T16:35:26.039Z,22.60
2023-04-18T16:40:46.531Z,23.21
2023-04-18T16:46:08.298Z,23.52
2023-04-18T16:51:28.820Z,24.19
2023-04-18T16:56:49.505Z,24.42
2023-04-18T17:02:10.356Z,24.92
2023-04-18T17:07:30.981Z,25.36
2023-04-18T17:12:51.693Z,24.94
2023-04-18T17:18:12.519Z,25.00
2023-04-18T17:23:33.398Z,25.26
2023-04-18T17:28:53.876Z,25.48
2023-04-18T17:34:14.732Z,25.85
2023-04-18T17:39:35.171Z,26.43
2023-04-18T17:44:56.260Z,26.97
2023-04-18T17:50:17.502Z,27.33
2023-04-18T17:55:40.227Z,27.92
2023-04-18T18:01:01.082Z,28.46
2023-04-18T18:06:21.803Z,28.72
2023-04-18T18:11:42.140Z,29.21
2023-04-18T18:17:02.707Z,29.54
2023-04-18T18:22:25.960Z,30.02
2023-04-18T18:27:47.000Z,30.60
2023-04-18T18:33:07.716Z,30.81
2023-04-18T18:38:28.089Z,31.13
2023-04-18T18:43:49.623Z,31.53
2023-04-18T18:49:10.060Z,31.92
2023-04-18T18:54:30.730Z,32.12
2023-04-18T18:59:52.474Z,33.22
2023-04-18T19:05:14.769Z,33.58
2023-04-18T19:10:35.376Z,33.98
2023-04-18T19:15:55.747Z,35.13
2023-04-18T19:21:17.374Z,35.51
2023-04-18T19:26:37.921Z,35.81
2023-04-18T19:31:58.872Z,36.26
2023-04-18T19:37:19.368Z,36.66
2023-04-18T19:42:39.891Z,37.03
2023-04-18T19:48:00.332Z,36.62
2023-04-18T19:53:21.240Z,36.95
2023-04-18T19:58:46.577Z,37.35
2023-04-18T20:04:08.322Z,37.32
2023-04-18T20:09:29.088Z,37.43
2023-04-18T20:14:50.269Z,37.56
2023-04-18T20:20:11.575Z,37.63
2023-04-18T20:25:33.570Z,38.06
2023-04-18T20:30:54.515Z,38.24
2023-04-18T20:36:17.514Z,38.57
2023-04-18T20:41:38.444Z,38.86
2023-04-18T20:46:59.350Z,38.99
2023-04-18T20:52:19.933Z,39.38
2023-04-18T20:57:40.865Z,39.00
2023-04-18T21:03:01.486Z,39.40
2023-04-18T21:08:22.143Z,39.70
2023-04-18T21:13:42.445Z,39.85
2023-04-18T21:19:03.081Z,39.75
2023-04-18T21:24:23.493Z,40.12
2023-04-18T21:29:44.247Z,40.45
2023-04-18T21:35:04.973Z,40.54
2023-04-18T21:40:30.717Z,40.68
2023-04-18T21:45:51.285Z,40.74
2023-04-18T21:51:15.235Z,40.83
2023-04-18T21:56:35.583Z,41.06
2023-04-18T22:01:56.799Z,41.11
2023-04-18T22:07:20.978Z,41.24
2023-04-18T22:12:42.376Z,41.48
2023-04-18T22:18:04.325Z,41.48
2023-04-18T22:23:26.232Z,41.71
2023-04-18T22:28:47.478Z,41.75
2023-04-18T22:34:07.881Z,41.93
2023-04-18T22:39:28.175Z,42.28
2023-04-18T22:44:48.469Z,42.50
2023-04-18T22:50:09.768Z,42.80
2023-04-18T22:55:30.459Z,42.61
2023-04-18T23:00:51.134Z,43.06
2023-04-18T23:06:12.066Z,43.00
2023-04-18T23:11:32.650Z,43.17
2023-04-18T23:16:53.661Z,43.55
2023-04-18T23:22:14.230Z,43.76
2023-04-18T23:27:34.847Z,44.32
2023-04-18T23:32:55.217Z,44.49
2023-04-18T23:38:15.460Z,45.05
2023-04-18T23:43:35.767Z,45.48
2023-04-18T23:48:56.300Z,45.62
2023-04-18T23:54:17.032Z,45.74
2023-04-18T23:59:37.550Z,45.53
